Terminal Aerodrome Forecast
Issued by NWS Louisville, KY

Home | Current Version | Previous Version | Text Only | Print | Product List | Glossary On
Versions: 1 2 3 4 5 6 7 8 9 10 11 12 13 14 15 16 17 18
000
FTUS43 KLMK 261000 AAA
TAFBWG
TAF AMD
KBWG 261039Z 2611/2706 00000KT 2SM BR SKC
     FM261100 VRB03KT 3SM BR FEW150
     FM261230 VRB04KT P6SM FEW040 SCT200=

USA.gov is the U.S. government's official web portal to all federal, state and local government web resources and services.